Needmore, Kentucky
Current Conditions -  °F | °C
As of 4:35 AM on Thursday 18 Dec 2014 (Local Time) from KFGX Reporting Station
Overcast Overcast  
Wind Chill: 18°   Ceiling: 1800
Heat Index: 27°   Visibility: 10mi
Dew Point: 21°   Wind: 8mph
Humidity: 80%   Direction: 360°N
Pressure: 30.27"   Gusts: NA
Location:  38.4934°N, 83.7754°W
Report Text: KFGX 180935Z AUTO 36007KT 10SM OVC018 M03/M06 A3027 RMK AO2 T10301060
Loading
Personal Weather Stations






























Interactive Weather Map New forecast layout! Learn more

10-Day Weather Forecast

Advertisements
Track Severe Weather on mobile